This is the latest recevied weather packets stored in our database for station/object OK5TVR-14. If no packets are shown the sender has not sent any weather packets the latest 10 day(s).
| Time | Temp. | Humidity | Pressure | Rain* | Wind** | Luminosity | Snow |
|---|---|---|---|---|---|---|---|
| 1788529012 | 29.44° C | 43% | 1007 hPa | 0 mm | - | 0 W/m² | - |
| 1788524512 | 27.78° C | 50% | 1008.7 hPa | 0 mm | - | 0 W/m² | - |
| 1788523612 | 26.67° C | 52% | 1009.1 hPa | 0 mm | - | 0 W/m² | - |
| 1788521812 | 26.11° C | 55% | 1009.4 hPa | 0 mm | - | 0 W/m² | - |
| 1788520912 | 25.56° C | 56% | 1009.7 hPa | 0 mm | - | 0 W/m² | - |
| 1788518212 | 24.44° C | 60% | 1010.4 hPa | 0 mm | - | 0 W/m² | - |
| 1788517312 | 23.89° C | 61% | 1010.7 hPa | 0 mm | - | 0 W/m² | - |
| 1788516412 | 23.33° C | 62% | 1011.1 hPa | 0 mm | - | 0 W/m² | - |
| 1788514612 | 22.22° C | 66% | 1011.6 hPa | 0 mm | - | 0 W/m² | - |
| 1788513712 | 22.22° C | 66% | 1011.7 hPa | 0 mm | - | 0 W/m² | - |
| 1788512812 | 22.22° C | 66% | 1011.9 hPa | 0 mm | - | 0 W/m² | - |
| 1788511012 | 21.11° C | 69% | 1012.5 hPa | 0 mm | - | 0 W/m² | - |
| 1788510112 | 20.56° C | 70% | 1012.6 hPa | 0 mm | - | 0 W/m² | - |
| 1788509212 | 20.56° C | 70% | 1012.8 hPa | 0 mm | - | 0 W/m² | - |
| 1788508312 | 20° C | 70% | 1012.9 hPa | 0 mm | - | 0 W/m² | - |
| 1788507412 | 19.44° C | 70% | 1013.1 hPa | 0 mm | - | 0 W/m² | - |
| 1788506512 | 18.89° C | 70% | 1013.2 hPa | 0 mm | - | 0 W/m² | - |
| 1788505612 | 18.33° C | 71% | 1013.4 hPa | 0 mm | - | 0 W/m² | - |
| 1788503812 | 17.22° C | 73% | 1013.7 hPa | 0 mm | - | 0 W/m² | - |
| 1788502912 | 16.67° C | 74% | 1013.7 hPa | 0 mm | - | 0 W/m² | - |
| 1788502012 | 16.67° C | 73% | 1013.8 hPa | 0 mm | - | 0 W/m² | - |
| 1788501112 | 16.67° C | 74% | 1013.9 hPa | 0 mm | - | 0 W/m² | - |
| 1788500212 | 16.11° C | 75% | 1014 hPa | 0 mm | - | 0 W/m² | - |
| 1788499312 | 16.11° C | 75% | 1014.1 hPa | 0 mm | - | 0 W/m² | - |
| 1788498412 | 16.11° C | 75% | 1014.2 hPa | 0 mm | - | 0 W/m² | - |
* Rain latest hour (hover to see other rain measurements)
** Current wind speed in m/s (hover to see current wind gust speed)